Latest Weather Observations for Shepparton

IDV60801

Issued at 10:52 pm EST Saturday 25 May 2019 (issued every 10 minutes, with the page automatically refreshed every 10 minutes)

About weather observations | Map of weather stations | Latest weather observations for VIC | Other Formats
Station Details ID: 081125 Name: SHEPPARTON AIRPORT Lat: -36.43 Lon: 145.39 Height: 113.9 m
Data from the previous 72 hours. | See also: Recent months at Shepparton
Date/Time
EST
Temp
°C
App
Temp
°C
Dew
Point
°C
Rel
Hum
%
Delta-T
°C
Wind Press
QNH
hPa
Press
MSL
hPa
Rain since
9am
mm
Dir  Spd
km/h
Gust
km/h
Spd
kts
Gust
kts
25/10:30pm 12.6 11.2 12.3 98 0.2 NW 11 15 6 8 1013.8 1013.8 1.2
25/10:00pm 12.9 9.7 11.8 93 0.6 WNW 20 26 11 14 1014.2 1014.3 0.4
25/09:30pm 14.0 9.8 11.0 82 1.6 W 24 41 13 22 1014.2 1014.3 0.0
25/09:00pm 14.7 9.7 9.5 71 2.7 W 26 41 14 22 1013.8 1013.8 0.0
25/08:30pm 12.3 11.0 10.0 86 1.2 NW 7 9 4 5 1013.0 1013.0 0.0
25/08:00pm 11.8 10.4 9.4 85 1.2 NW 7 9 4 5 1013.0 1013.0 0.0
25/07:30pm 11.4 9.9 8.6 83 1.4 NW 6 7 3 4 1012.9 1012.9 0.0
25/07:00pm 12.8 11.5 9.1 78 1.9 NW 6 7 3 4 1012.9 1012.9 0.0
25/06:30pm 12.9 11.3 8.6 75 2.2 NW 7 9 4 5 1012.8 1012.8 0.0
25/06:00pm 13.5 11.9 8.6 72 2.5 NW 7 9 4 5 1012.9 1012.9 0.0
25/05:30pm 14.7 13.0 8.2 65 3.3 NW 7 9 4 5 1012.6 1012.6 0.0
25/05:00pm 17.2 14.5 8.9 58 4.3 WNW 13 20 7 11 1012.7 1012.7 0.0
25/04:30pm 18.0 15.4 9.4 57 4.5 WNW 13 20 7 11 1012.8 1012.8 0.0
25/04:00pm 18.4 15.0 9.2 55 4.8 NW 17 24 9 13 1012.9 1012.9 0.0
25/03:30pm 18.8 14.7 8.7 52 5.3 NW 20 28 11 15 1012.9 1012.9 0.0
25/03:00pm 18.3 16.1 10.9 62 4.0 NW 13 20 7 11 1013.1 1013.1 0.0
25/02:30pm 18.6 17.0 11.4 63 4.0 NW 11 22 6 12 1013.0 1013.0 0.0
25/02:00pm 17.7 15.9 12.2 70 3.1 NNW 13 20 7 11 1013.4 1013.4 0.0
25/01:30pm 17.5 15.7 12.0 70 3.0 NW 13 19 7 10 1013.6 1013.6 0.0
25/01:00pm 17.4 16.2 12.7 74 2.6 N 11 17 6 9 1014.0 1014.1 0.0
25/12:30pm 16.7 15.8 12.5 76 2.3 NNW 9 15 5 8 1014.3 1014.4 0.0
25/12:00pm 16.5 15.3 11.6 73 2.7 W 9 13 5 7 1014.8 1014.9 0.0
25/11:30am 15.9 14.4 11.9 77 2.2 NNW 11 17 6 9 1015.4 1015.5 0.0
25/11:00am 16.1 14.9 11.5 74 2.5 NNW 9 15 5 8 1015.5 1015.6 0.0
25/10:30am 15.4 14.1 11.2 76 2.3 NNW 9 13 5 7 1015.7 1015.8 0.0
25/10:00am 14.9 13.1 10.9 77 2.1 NW 11 15 6 8 1015.9 1016.0 0.0
25/09:30am 14.1 12.5 10.3 78 2.0 NW 9 13 5 7 1016.1 1016.2 0.0
25/09:00am 12.7 13.4 12.2 97 0.3 CALM 0 0 0 0 1016.2 1016.3 0.6
25/08:30am 11.5 11.9 11.2 98 0.2 CALM 0 0 0 0 1016.1 1016.2 0.6
25/08:00am 11.0 11.2 10.5 97 0.3 CALM 0 0 0 0 1015.7 1015.8 0.6
25/07:30am 9.9 9.3 9.0 94 0.4 NE 2 7 1 4 1015.6 1015.7 0.6
25/07:00am 11.4 11.2 10.3 93 0.6 NE 2 6 1 3 1015.5 1015.6 0.6
25/06:30am 11.0 10.5 9.3 89 0.9 ENE 2 7 1 4 1015.5 1015.6 0.6
25/06:00am 12.4 11.9 10.6 89 0.9 ENE 4 9 2 5 1015.4 1015.5 0.6
25/05:30am 12.3 11.2 10.5 89 0.9 ENE 7 9 4 5 1015.2 1015.3 0.6
25/05:00am 12.8 11.8 10.9 88 1.0 ENE 7 9 4 5 1015.3 1015.4 0.6
25/04:30am 12.9 13.2 10.8 87 1.1 CALM 0 7 0 4 1015.5 1015.6 0.6
25/04:00am 13.1 12.3 11.0 87 1.1 ENE 6 9 3 5 1015.5 1015.6 0.6
25/03:30am 13.4 12.6 11.1 86 1.2 ENE 6 11 3 6 1015.9 1016.0 0.6
25/03:00am 13.4 12.5 11.3 87 1.1 ENE 7 9 4 5 1016.1 1016.2 0.6
25/02:30am 13.5 12.2 11.4 87 1.1 NNE 9 17 5 9 1016.4 1016.5 0.6
25/02:00am 13.4 12.2 11.5 88 1.0 NNE 9 15 5 8 1016.5 1016.6 0.6
25/01:30am 13.4 12.8 11.6 89 1.0 NNE 6 11 3 6 1016.7 1016.8 0.6
25/01:00am 13.8 12.3 11.8 88 1.1 NNE 11 15 6 8 1016.7 1016.8 0.6
25/12:30am 13.9 11.3 12.1 89 1.0 NNE 17 24 9 13 1016.8 1016.9 0.6
25/12:00am 14.1 11.9 12.0 87 1.1 NE 15 19 8 10 1016.9 1017.0 0.6
 
Date/Time
EST
Temp
°C
App
Temp
°C
Dew
Point
°C
Rel
Hum
%
Delta-T
°C
Wind Press
QNH
hPa
Press
MSL
hPa
Rain since
9am
mm
Dir  Spd
km/h
Gust
km/h
Spd
kts
Gust
kts
24/11:30pm 14.1 14.0 12.0 87 1.1 NE 4 11 2 6 1017.1 1017.2 0.6
24/11:00pm 14.0 12.5 12.0 88 1.1 NE 11 17 6 9 1017.2 1017.3 0.6
24/10:30pm 14.1 11.8 11.8 86 1.2 NE 15 22 8 12 1017.5 1017.6 0.4
24/10:00pm 14.1 11.7 11.3 83 1.5 NNE 15 19 8 10 1018.1 1018.2 0.4
24/09:30pm 14.4 13.5 11.2 81 1.7 NE 7 13 4 7 1018.4 1018.5 0.4
24/09:00pm 14.6 13.7 10.8 78 2.0 ENE 6 9 3 5 1018.3 1018.4 0.4
24/08:30pm 15.0 13.1 10.4 74 2.4 ENE 11 15 6 8 1018.1 1018.2 0.4
24/08:00pm 15.2 13.2 10.2 72 2.6 NE 11 17 6 9 1018.4 1018.5 0.4
24/07:30pm 15.1 12.6 9.7 70 2.8 ENE 13 19 7 10 1018.5 1018.6 0.4
24/07:00pm 15.3 13.5 9.4 68 3.1 ENE 9 19 5 10 1018.6 1018.7 0.4
24/06:30pm 15.6 13.0 9.3 66 3.3 NE 13 17 7 9 1019.0 1019.1 0.4
24/06:00pm 15.8 13.5 9.0 64 3.5 NE 11 19 6 10 1018.8 1018.9 0.4
24/05:30pm 16.0 13.0 9.2 64 3.5 NE 15 22 8 12 1018.5 1018.6 0.4
24/05:00pm 16.4 13.7 8.9 61 3.9 NE 13 15 7 8 1018.8 1018.9 0.4
24/04:30pm 16.8 14.1 8.8 59 4.1 NE 13 17 7 9 1018.5 1018.6 0.4
24/04:00pm 17.4 14.6 8.5 56 4.6 NE 13 19 7 10 1018.5 1018.6 0.4
24/03:30pm 17.1 13.7 9.0 59 4.2 NE 17 20 9 11 1018.1 1018.2 0.4
24/03:00pm 17.1 14.4 8.8 58 4.3 NNE 13 20 7 11 1018.2 1018.3 0.4
24/02:30pm 17.3 13.9 9.0 58 4.3 NE 17 26 9 14 1018.7 1018.8 0.4
24/02:00pm 16.7 13.4 9.6 63 3.7 NE 17 24 9 13 1019.4 1019.4 0.4
24/01:30pm 16.7 13.2 8.9 60 4.0 NE 17 24 9 13 1019.7 1019.7 0.4
24/01:00pm 16.7 13.4 9.6 63 3.7 NE 17 24 9 13 1020.1 1020.1 0.4
24/12:30pm 16.1 13.2 9.5 65 3.4 NE 15 20 8 11 1020.7 1020.7 0.4
24/12:00pm 14.2 12.2 10.0 76 2.2 ESE 11 15 6 8 1020.8 1020.8 0.4
24/11:30am 13.9 12.0 9.1 73 2.5 NE 9 15 5 8 1021.5 1021.6 0.2
24/11:00am 14.0 12.0 8.6 70 2.7 NE 9 13 5 7 1021.9 1022.0 0.0
24/10:30am 13.1 10.7 8.6 74 2.3 ENE 11 17 6 9 1022.2 1022.3 0.0
24/10:00am 12.4 10.4 8.5 77 1.9 ENE 9 13 5 7 1022.7 1022.8 0.0
24/09:30am 12.1 10.5 8.6 79 1.7 ENE 7 13 4 7 1022.3 1022.4 0.0
24/09:00am 11.9 10.3 8.0 77 1.9 NE 6 13 3 7 1022.2 1022.3 0.0
24/08:30am 11.7 9.1 7.8 77 1.9 NE 11 19 6 10 1022.0 1022.1 0.0
24/08:00am 11.7 8.7 7.8 77 1.9 NE 13 24 7 13 1021.8 1021.9 0.0
24/07:30am 11.2 7.9 8.2 82 1.5 NE 15 20 8 11 1021.5 1021.6 0.0
24/07:00am 9.4 7.6 8.0 91 0.7 ENE 7 15 4 8 1021.7 1021.8 0.0
24/06:30am 9.6 9.1 7.7 88 0.9 CALM 0 0 0 0 1021.7 1021.8 0.0
24/06:00am 9.6 8.6 7.2 85 1.1 ENE 2 13 1 7 1021.4 1021.5 0.0
24/05:30am 10.8 8.9 7.5 80 1.6 ENE 7 11 4 6 1021.3 1021.3 0.0
24/05:00am 11.0 9.2 7.9 81 1.5 ENE 7 11 4 6 1021.2 1021.2 0.0
24/04:30am 11.2 8.6 7.9 80 1.6 ENE 11 17 6 9 1021.1 1021.1 0.0
24/04:00am 11.4 8.4 7.9 79 1.7 NE 13 17 7 9 1021.2 1021.2 0.0
24/03:30am 11.5 8.5 7.6 77 1.9 NE 13 19 7 10 1021.4 1021.5 0.0
24/03:00am 11.9 9.3 7.6 75 2.1 ENE 11 15 6 8 1022.0 1022.1 0.0
24/02:30am 12.1 9.0 7.4 73 2.3 ENE 13 17 7 9 1022.1 1022.2 0.0
24/02:00am 12.2 9.2 7.5 73 2.3 NE 13 19 7 10 1022.0 1022.1 0.0
24/01:30am 12.1 8.7 7.8 75 2.1 NE 15 20 8 11 1022.0 1022.1 0.0
24/01:00am 12.1 9.1 7.8 75 2.1 NE 13 20 7 11 1022.3 1022.4 0.0
24/12:30am 11.8 8.8 7.7 76 2.0 NE 13 19 7 10 1022.7 1022.8 0.0
24/12:00am 12.2 8.5 7.9 75 2.1 NE 17 22 9 12 1022.7 1022.8 0.0
 
Date/Time
EST
Temp
°C
App
Temp
°C
Dew
Point
°C
Rel
Hum
%
Delta-T
°C
Wind Press
QNH
hPa
Press
MSL
hPa
Rain since
9am
mm
Dir  Spd
km/h
Gust
km/h
Spd
kts
Gust
kts
23/11:30pm 12.1 9.2 8.2 77 1.9 NE 13 17 7 9 1023.3 1023.4 0.0
23/11:00pm 10.8 9.0 8.0 83 1.4 NE 7 13 4 7 1023.6 1023.7 0.0
23/10:30pm 10.8 9.7 7.1 78 1.8 NE 2 6 1 3 1023.9 1024.0 0.0
23/10:00pm 11.7 9.7 7.2 74 2.2 NE 7 9 4 5 1024.0 1024.1 0.0
23/09:30pm 12.6 10.3 7.5 71 2.5 ENE 9 15 5 8 1023.9 1024.0 0.0
23/09:00pm 12.8 10.7 8.1 73 2.3 ENE 9 13 5 7 1024.0 1024.1 0.0
23/08:30pm 13.2 11.4 8.1 71 2.5 ENE 7 13 4 7 1024.3 1024.4 0.0
23/08:00pm 12.9 11.0 9.2 78 1.9 NE 9 13 5 7 1024.2 1024.3 0.0
23/07:30pm 11.3 9.5 7.2 76 2.0 NE 6 7 3 4 1024.2 1024.3 0.0
23/07:00pm 13.5 11.7 8.1 70 2.7 NE 7 7 4 4 1024.2 1024.3 0.0
23/06:30pm 14.8 13.3 8.3 65 3.3 NE 6 7 3 4 1024.0 1024.1 0.0
23/06:00pm 15.7 13.6 8.4 62 3.7 NE 9 11 5 6 1023.7 1023.8 0.0
23/05:30pm 16.5 14.1 8.5 59 4.1 NE 11 11 6 6 1023.6 1023.7 0.0
23/05:00pm 17.9 15.9 8.5 54 4.8 NE 9 9 5 5 1023.8 1023.9 0.0
23/04:30pm 19.2 16.6 7.9 48 5.8 NNE 11 17 6 9 1024.0 1024.1 0.0
23/04:00pm 19.7 16.7 7.8 46 6.1 NNE 13 20 7 11 1024.1 1024.2 0.0
23/03:30pm 19.9 16.9 7.6 45 6.3 NNE 13 17 7 9 1024.4 1024.5 0.0
23/03:00pm 19.8 17.4 8.8 49 5.8 NNE 11 17 6 9 1024.6 1024.7 0.0
23/02:30pm 19.4 16.6 8.7 50 5.6 NNE 13 19 7 10 1024.9 1025.0 0.0
23/02:00pm 19.3 17.1 9.2 52 5.3 NNE 11 19 6 10 1025.3 1025.4 0.0
23/01:30pm 18.6 16.5 9.7 56 4.7 NE 11 17 6 9 1025.7 1025.8 0.0
23/01:00pm 18.2 15.8 10.1 59 4.3 NNE 13 19 7 10 1026.2 1026.3 0.0
23/12:30pm 17.5 15.6 10.4 63 3.8 NE 11 17 6 9 1026.9 1027.0 0.0
23/12:00pm 16.9 15.1 10.7 67 3.3 NNE 11 15 6 8 1027.5 1027.6 0.0
23/11:30am 15.4 13.0 10.0 70 2.8 NE 13 17 7 9 1027.8 1027.9 0.0
23/11:00am 14.3 12.1 9.5 73 2.5 NNE 11 13 6 7 1028.5 1028.5 0.0
23/10:30am 13.4 12.4 10.2 81 1.7 ESE 6 9 3 5 1028.9 1029.0 0.0
23/10:00am 11.0 10.5 10.8 99 0.1 ESE 4 9 2 5 1028.9 1029.0 0.0
23/09:30am 9.6 9.2 9.6 100 0.0 ESE 2 7 1 4 1029.0 1029.1 0.0
23/09:00am 8.3 7.9 8.3 100 0.0 CALM 0 0 0 0 1029.0 1029.1 0.2
23/08:30am 6.8 6.1 6.8 100 0.0 CALM 0 0 0 0 1028.7 1028.8 0.2
23/08:00am 4.7 2.7 4.6 99 0.0 ESE 4 11 2 6 1028.5 1028.5 0.2
23/07:45am 4.3 3.0 4.2 99 0.0 CALM 0 6 0 3 1028.2 1028.3 0.2
23/07:30am 3.4 2.0 3.3 99 0.0 CALM 0 0 0 0 1028.2 1028.3 0.2
23/07:26am 3.4 2.0 3.3 99 0.0 CALM 0 0 0 0 1028.2 1028.3 0.2
23/07:00am 3.8 2.4 3.7 99 0.0 CALM 0 0 0 0 1028.0 1028.1 0.2
23/06:30am 3.7 2.3 3.6 99 0.0 CALM 0 0 0 0 1027.7 1027.8 0.2
23/06:18am 4.2 2.5 4.1 99 0.0 WSW 2 7 1 4 1027.7 1027.8 0.2
23/06:00am 4.3 2.6 4.2 99 0.0 WSW 2 7 1 4 1027.6 1027.7 0.2
23/05:36am 3.8 2.0 3.7 99 0.0 WSW 2 7 1 4 1027.6 1027.7 0.2
23/05:30am 3.9 2.5 3.8 99 0.0 CALM 0 0 0 0 1027.5 1027.6 0.2
23/05:28am 4.0 2.7 3.9 99 0.0 CALM 0 0 0 0 1027.5 1027.6 0.2
23/05:00am 3.9 2.5 3.8 99 0.0 CALM 0 0 0 0 1027.3 1027.4 0.2
23/04:30am 4.0 2.7 3.9 99 0.0 CALM 0 0 0 0 1027.2 1027.3 0.2
23/04:00am 5.1 3.6 5.0 99 0.0 WSW 2 6 1 3 1027.3 1027.4 0.2
23/03:39am 4.9 3.7 4.8 99 0.0 CALM 0 0 0 0 1027.4 1027.5 0.2
23/03:30am 5.0 3.9 4.9 99 0.0 CALM 0 0 0 0 1027.4 1027.5 0.2
23/03:06am 5.4 4.3 5.3 99 0.0 CALM 0 0 0 0 1027.6 1027.7 0.2
23/03:00am 4.7 3.5 4.6 99 0.0 CALM 0 0 0 0 1027.7 1027.8 0.2
23/02:53am 4.5 3.3 4.4 99 0.0 CALM 0 0 0 0 1027.7 1027.8 0.2
23/02:30am 5.4 4.3 5.3 99 0.0 CALM 0 0 0 0 1027.8 1027.9 0.2
23/02:19am 5.7 4.7 5.6 99 0.0 CALM 0 0 0 0 1027.9 1028.0 0.2
23/02:00am 5.2 4.1 5.1 99 0.0 CALM 0 0 0 0 1027.9 1028.0 0.2
23/01:43am 5.3 4.2 5.2 99 0.0 CALM 0 0 0 0 1027.8 1027.9 0.2
23/01:41am 5.2 4.1 5.1 99 0.0 CALM 0 0 0 0 1027.8 1027.9 0.2
23/01:39am 5.4 4.3 5.3 99 0.0 CALM 0 0 0 0 1027.8 1027.9 0.2
23/01:30am 5.4 4.3 5.3 99 0.0 CALM 0 0 0 0 1028.0 1028.1 0.2
23/01:27am 5.6 4.6 5.5 99 0.0 CALM 0 0 0 0 1027.9 1028.0 0.2
23/01:20am 5.8 4.8 5.7 99 0.0 CALM 0 0 0 0 1028.0 1028.1 0.2
23/01:06am 5.6 4.2 5.5 99 0.0 WSW 2 6 1 3 1028.0 1028.1 0.2
23/01:00am 6.0 4.7 5.9 99 0.0 WSW 2 6 1 3 1028.1 1028.2 0.2
23/12:30am 6.5 5.7 6.4 99 0.0 CALM 0 0 0 0 1028.2 1028.3 0.2
23/12:04am 6.4 5.6 6.3 99 0.0 CALM 0 0 0 0 1028.3 1028.4 0.2
23/12:00am 6.7 5.9 6.6 99 0.0 CALM 0 0 0 0 1028.3 1028.4 0.2
 
Date/Time
EST
Temp
°C
App
Temp
°C
Dew
Point
°C
Rel
Hum
%
Delta-T
°C
Wind Press
QNH
hPa
Press
MSL
hPa
Rain since
9am
mm
Dir  Spd
km/h
Gust
km/h
Spd
kts
Gust
kts
22/11:39pm 6.6 5.8 6.5 99 0.0 CALM 0 0 0 0 1028.3 1028.4 0.2
22/11:30pm 7.0 6.3 6.9 99 0.0 CALM 0 0 0 0 1028.3 1028.4 0.2
22/11:23pm 7.3 6.7 7.2 99 0.0 CALM 0 0 0 0 1028.3 1028.4 0.2
22/11:22pm 7.4 6.8 7.3 99 0.0 CALM 0 0 0 0 1028.3 1028.4 0.2
22/11:06pm 7.2 6.5 7.1 99 0.0 CALM 0 0 0 0 1028.3 1028.4 0.2
22/11:00pm 7.1 6.4 7.0 99 0.0 CALM 0 0 0 0 1028.3 1028.4 0.2

Other formats

Comma delimited format used in spreadsheet applications
http://www.bom.gov.au/fwo/IDV60801/IDV60801.94875.axf

JavaScript Object Notation format (JSON) in row-major order
http://www.bom.gov.au/fwo/IDV60801/IDV60801.94875.json

Data quality

Most of these data are generated automatically and are frequently updated. Quality checks on data are not normally performed. It is possible for incorrect values to appear. Refer to information at About Latest Weather Observations and please check the disclaimer before using these data.